Appleton, Colorado
Current Conditions -  °F | °C
As of 5:53 AM on Saturday 25 Oct 2014 (Local Time) from KGJT Reporting Station
Clear Clear  
Wind Chill: 38°   Ceiling: Unl
Heat Index: 44°   Visibility: 10mi
Dew Point: 32°   Wind: 12mph
Humidity: 63%   Direction: 140°SE
Pressure: 30.25"   Gusts: NA
Location:  39.1857°N, 108.6°W
Report Text: KGJT 251153Z 14010KT 10SM CLR 07/00 A3025 RMK AO2 SLP204 T00670000 10106 20044 56000
Loading
Personal Weather Stations






























Interactive Weather Map New forecast layout! Learn more

10-Day Weather Forecast

Advertisements
Track Severe Weather on mobile